DTTA/TUN METAR and TAF weather

Enter ICAO airport designator
Station Type Date Time Source
DTTA METAR 2019/06/16 07:00 UTC NOAA

DTTA 160700Z 30007KT 270V330 9999 FEW033 23/17 Q1017


Station Type Date Time Source
DTTA Decoded METAR 2019/06/16 07:00 UTC NOAA

Tunis-Carthage, Tunisia (DTTA) 36-50N 010-14E 4M
Jun 16, 2019 - 03:00 AM EDT / 2019.06.16 0700 UTC
Wind: from the WNW (300 degrees) at 8 MPH (7 KT) (direction variable):0
Visibility: greater than 7 mile(s):0
Sky conditions: mostly clear
Temperature: 73 F (23 C)
Dew Point: 62 F (17 C)
Relative Humidity: 68%
Pressure (altimeter): 30.03 in. Hg (1017 hPa)
ob: DTTA 160700Z 30007KT 270V330 9999 FEW033 23/17 Q1017
cycle: 7

Station Type Date Time Source
DTTA TAF 2019/06/16 06:50 UTC NOAA

TAF DTTA 160500Z 1606/1706 29004KT 9999 FEW033
BECMG 1608/1610 35010KT
BECMG 1611/1613 05013KT
BECMG 1621/1623 32005KT

Example: see airport list